Drumheller, Canada
Current Conditions -  °F | °C
As of 5:00 PM on Tuesday 21 Oct 2014 (Local Time) from CYYC Reporting Station
Broken Clouds Broken Clouds  
Wind Chill: 59°   Ceiling: 30000
Heat Index: 59°   Visibility: 40mi
Dew Point: 28°   Wind: 13mph
Humidity: 31%   Direction: 280°W
Pressure: 29.69"   Gusts: NA
Location:  51.46°N, 112.71°W
Report Text: CYYC 212300Z 28011KT 40SM FEW065 SCT190 BKN300 15/M02 A2969 RMK CU1AS3CI4 CU TR SLP068 DENSITY ALT 4600FT
Loading
Personal Weather Stations






























Interactive Weather Map
Tropical Storm Tracking
New forecast layout! Learn more

10-Day Weather Forecast

Advertisements
Track Severe Weather on mobile